Time;durP1;ratioP1;P1;durP2;ratioP2;P2;SDS_P1;SDS_P2;PMS_P1;PMS_P2;Temp;Humidity;BMP_temperature;BMP_pressure;BME280_temperature;BME280_humidity;BME280_pressure;Samples;Min_cycle;Max_cycle;Signal;HPM_P1;HPM_P2
2021/05/28 00:01:27;;;;;;;1.38;0.90;;;23.70;34.70;;;;;;5012702;28;20199;-44
2021/05/28 00:03:53;;;;;;;1.83;0.90;;;23.70;34.70;;;;;;5012234;28;20282;-40
2021/05/28 00:06:19;;;;;;;0.95;0.95;;;23.70;34.70;;;;;;5013651;28;20668;-40
2021/05/28 00:08:45;;;;;;;1.30;0.98;;;23.70;34.70;;;;;;5011655;28;20207;-40
2021/05/28 00:11:11;;;;;;;0.90;0.90;;;23.70;34.60;;;;;;5007899;28;20214;-41
2021/05/28 00:13:37;;;;;;;0.90;0.90;;;23.70;34.60;;;;;;5017886;28;20722;-40
2021/05/28 00:16:03;;;;;;;1.10;1.00;;;23.70;34.70;;;;;;5012724;28;20241;-40
2021/05/28 00:18:29;;;;;;;1.80;0.95;;;23.70;34.70;;;;;;5011260;28;20199;-40
2021/05/28 00:20:55;;;;;;;1.23;0.93;;;23.70;34.80;;;;;;5012414;28;20551;-40
2021/05/28 00:23:21;;;;;;;0.95;0.75;;;23.70;34.60;;;;;;5011488;28;20223;-40
2021/05/28 00:25:47;;;;;;;1.27;0.90;;;23.70;34.40;;;;;;5011687;28;20215;-41
2021/05/28 00:28:13;;;;;;;0.80;0.80;;;23.70;34.40;;;;;;5012941;28;20230;-40
2021/05/28 00:30:39;;;;;;;1.55;1.00;;;23.70;34.50;;;;;;5012177;28;20219;-41
2021/05/28 00:33:05;;;;;;;1.02;0.88;;;23.70;34.50;;;;;;5012127;28;20305;-40
2021/05/28 00:35:31;;;;;;;2.25;1.35;;;23.70;34.60;;;;;;5011996;28;20226;-40
2021/05/28 00:37:57;;;;;;;1.23;1.00;;;23.70;34.70;;;;;;5012010;28;20246;-40
2021/05/28 00:40:23;;;;;;;0.80;0.80;;;23.70;35.30;;;;;;5001208;28;20225;-40
2021/05/28 00:42:49;;;;;;;1.00;0.90;;;23.70;34.70;;;;;;5001167;28;20230;-40
2021/05/28 00:45:15;;;;;;;0.77;0.77;;;23.70;34.80;;;;;;5010176;28;20199;-42
2021/05/28 00:47:41;;;;;;;1.10;1.00;;;23.70;34.70;;;;;;5010274;28;20211;-40
2021/05/28 00:50:07;;;;;;;0.80;0.80;;;23.70;34.60;;;;;;5009350;28;20211;-41
2021/05/28 00:52:33;;;;;;;1.00;0.90;;;23.70;34.60;;;;;;5011651;28;20215;-44
2021/05/28 00:54:59;;;;;;;0.90;0.80;;;23.70;34.70;;;;;;5011242;28;20195;-42
2021/05/28 00:57:26;;;;;;;0.85;0.82;;;23.70;34.60;;;;;;5011493;28;20199;-47
2021/05/28 00:59:55;;;;;;;0.80;0.80;;;23.70;34.70;;;;;;5010400;28;20643;-47
2021/05/28 01:02:21;;;;;;;0.93;0.90;;;23.70;34.70;;;;;;5011797;28;20203;-45
2021/05/28 01:04:47;;;;;;;0.80;0.80;;;23.70;34.70;;;;;;5011402;28;20207;-49
2021/05/28 01:07:13;;;;;;;0.80;0.80;;;23.70;34.70;;;;;;5012557;28;20211;-41
2021/05/28 01:09:39;;;;;;;1.27;0.95;;;23.70;34.70;;;;;;5011971;28;20570;-47
2021/05/28 01:12:05;;;;;;;0.85;0.85;;;23.70;34.60;;;;;;5012549;28;20199;-41
2021/05/28 01:14:31;;;;;;;2.58;1.75;;;23.70;34.60;;;;;;5009890;28;20226;-41
2021/05/28 01:16:57;;;;;;;0.90;0.90;;;23.70;34.60;;;;;;5011761;28;20231;-40
2021/05/28 01:19:25;;;;;;;0.88;0.88;;;23.70;34.70;;;;;;5010873;28;20335;-41
2021/05/28 01:21:51;;;;;;;1.08;0.98;;;23.70;34.70;;;;;;5012287;28;20207;-40
2021/05/28 01:24:17;;;;;;;1.27;0.90;;;23.70;35.00;;;;;;5011000;28;20218;-40
2021/05/28 01:26:43;;;;;;;0.90;0.90;;;23.70;35.10;;;;;;5011358;28;20195;-40
2021/05/28 01:29:09;;;;;;;1.02;0.90;;;23.70;35.00;;;;;;5009983;28;20199;-47
2021/05/28 01:31:35;;;;;;;1.17;0.90;;;23.70;35.00;;;;;;5012018;28;20215;-45
2021/05/28 01:34:01;;;;;;;1.13;1.02;;;23.70;35.10;;;;;;5010332;28;20249;-42
2021/05/28 01:36:27;;;;;;;0.80;0.80;;;23.70;35.00;;;;;;5011276;28;20227;-45
2021/05/28 01:38:53;;;;;;;1.85;1.00;;;23.70;35.10;;;;;;5011390;28;20203;-41
2021/05/28 01:41:19;;;;;;;0.90;0.90;;;23.70;35.20;;;;;;5010820;28;20214;-48
2021/05/28 01:43:45;;;;;;;0.95;0.90;;;23.70;35.00;;;;;;5010286;28;20253;-46
2021/05/28 01:46:11;;;;;;;0.93;0.88;;;23.70;35.00;;;;;;5010317;28;20647;-50
2021/05/28 01:48:37;;;;;;;0.88;0.88;;;23.70;35.00;;;;;;5009382;28;20210;-41
2021/05/28 01:51:03;;;;;;;1.02;1.00;;;23.70;34.80;;;;;;5009386;28;20222;-41
2021/05/28 01:53:29;;;;;;;0.90;0.90;;;23.70;34.90;;;;;;5010383;28;20249;-50
2021/05/28 01:55:55;;;;;;;0.70;0.70;;;23.70;34.80;;;;;;5010357;28;20223;-44
2021/05/28 01:58:21;;;;;;;0.80;0.80;;;23.70;34.90;;;;;;5010521;28;20203;-45
2021/05/28 02:00:48;;;;;;;1.10;0.80;;;23.70;35.00;;;;;;5011167;28;20195;-44
2021/05/28 02:03:14;;;;;;;0.93;0.90;;;23.70;34.80;;;;;;5010350;28;20215;-45
2021/05/28 02:05:40;;;;;;;0.82;0.80;;;23.70;34.90;;;;;;5010113;28;20284;-41
2021/05/28 02:08:06;;;;;;;1.52;1.15;;;23.70;35.00;;;;;;5011311;28;20211;-44
2021/05/28 02:10:32;;;;;;;0.90;0.90;;;23.70;34.80;;;;;;5008904;28;20230;-41
2021/05/28 02:12:58;;;;;;;0.90;0.90;;;23.70;34.80;;;;;;5009187;28;20723;-43
2021/05/28 02:15:24;;;;;;;0.90;0.90;;;23.70;34.90;;;;;;5010051;28;20261;-40
2021/05/28 02:17:50;;;;;;;0.70;0.70;;;23.70;34.90;;;;;;5010989;28;20203;-41
2021/05/28 02:20:16;;;;;;;0.70;0.70;;;23.70;34.80;;;;;;5010404;28;20259;-41
2021/05/28 02:22:42;;;;;;;0.90;0.80;;;23.70;35.00;;;;;;5010592;28;20218;-40
2021/05/28 02:25:08;;;;;;;0.80;0.80;;;23.70;35.00;;;;;;5009066;28;20648;-47
2021/05/28 02:27:34;;;;;;;0.80;0.80;;;23.60;34.90;;;;;;5010360;28;20199;-45
2021/05/28 02:30:00;;;;;;;1.67;1.00;;;23.70;35.10;;;;;;5010502;28;20225;-45
2021/05/28 02:32:26;;;;;;;0.80;0.80;;;23.70;35.00;;;;;;5010261;28;20277;-44
2021/05/28 02:34:52;;;;;;;0.88;0.88;;;23.70;35.10;;;;;;5009526;28;20199;-50
2021/05/28 02:37:18;;;;;;;1.83;0.90;;;23.70;35.10;;;;;;5010970;28;20256;-45
2021/05/28 02:39:44;;;;;;;2.30;0.90;;;23.70;35.10;;;;;;5009770;28;20241;-45
2021/05/28 02:42:10;;;;;;;1.40;1.30;;;23.60;35.00;;;;;;5010629;28;20562;-47
2021/05/28 02:44:36;;;;;;;0.80;0.80;;;23.70;35.20;;;;;;5009132;28;20195;-42
2021/05/28 02:47:02;;;;;;;1.48;0.82;;;23.60;35.10;;;;;;5009277;28;20256;-47
2021/05/28 02:49:28;;;;;;;0.80;0.80;;;23.60;35.00;;;;;;5009101;28;20199;-43
2021/05/28 02:51:54;;;;;;;1.40;1.15;;;23.60;35.20;;;;;;5005800;28;20238;-44
2021/05/28 02:54:20;;;;;;;0.93;0.80;;;23.60;35.20;;;;;;5016017;28;20255;-43
2021/05/28 02:56:46;;;;;;;1.10;1.00;;;23.60;35.70;;;;;;5016375;28;20309;-46
2021/05/28 02:59:12;;;;;;;0.82;0.80;;;23.60;35.60;;;;;;5015713;28;20210;-42
2021/05/28 03:01:38;;;;;;;1.75;0.90;;;23.60;35.70;;;;;;5016820;28;20202;-46
2021/05/28 03:04:04;;;;;;;0.98;0.90;;;23.60;35.70;;;;;;5016792;28;20222;-40
2021/05/28 03:06:30;;;;;;;1.00;0.88;;;23.60;35.70;;;;;;5015954;28;20198;-43
2021/05/28 03:08:56;;;;;;;2.50;0.90;;;23.60;35.50;;;;;;5016641;28;20202;-46
2021/05/28 03:11:22;;;;;;;1.42;0.93;;;23.60;35.50;;;;;;5016221;28;20205;-46
2021/05/28 03:13:48;;;;;;;1.58;0.90;;;23.60;35.60;;;;;;5011780;28;20215;-53
2021/05/28 03:16:14;;;;;;;0.98;0.90;;;23.60;35.50;;;;;;5011458;28;20338;-47
2021/05/28 03:18:47;;;;;;;1.35;1.00;;;23.60;35.50;;;;;;5016997;28;20203;-46
2021/05/28 03:21:21;;;;;;;1.63;0.80;;;23.60;35.50;;;;;;5016390;28;20214;-51
2021/05/28 03:23:47;;;;;;;2.38;0.90;;;23.60;35.40;;;;;;5016485;28;20223;-42
2021/05/28 03:26:13;;;;;;;1.92;0.90;;;23.60;35.40;;;;;;5015896;28;20616;-48
2021/05/28 03:28:39;;;;;;;2.70;1.02;;;23.60;35.50;;;;;;5016103;28;20214;-42
2021/05/28 03:31:05;;;;;;;0.95;0.95;;;23.60;35.40;;;;;;5015654;28;20195;-47
2021/05/28 03:33:31;;;;;;;0.80;0.80;;;23.60;35.40;;;;;;5016075;28;20243;-51
2021/05/28 03:35:57;;;;;;;1.15;1.05;;;23.60;35.30;;;;;;5015518;28;20235;-47
2021/05/28 03:38:23;;;;;;;0.98;0.82;;;23.60;35.50;;;;;;5016483;28;20501;-44
2021/05/28 03:40:49;;;;;;;0.77;0.77;;;23.60;35.40;;;;;;5015816;28;20214;-47
2021/05/28 03:43:15;;;;;;;0.88;0.80;;;23.60;35.50;;;;;;5015955;28;20214;-45
2021/05/28 03:45:40;;;;;;;1.20;1.10;;;23.60;35.50;;;;;;5016764;28;20215;-48
2021/05/28 03:48:06;;;;;;;0.98;0.82;;;23.60;35.40;;;;;;5015851;28;20203;-46
2021/05/28 03:50:32;;;;;;;1.63;0.70;;;23.60;36.00;;;;;;5015032;28;20210;-45
2021/05/28 03:52:58;;;;;;;0.70;0.70;;;23.60;35.90;;;;;;5015665;28;20230;-47
2021/05/28 03:55:24;;;;;;;1.08;0.80;;;23.60;35.80;;;;;;5015905;28;20352;-48
2021/05/28 03:57:50;;;;;;;0.98;0.90;;;23.60;35.80;;;;;;5016274;28;20218;-40
2021/05/28 04:00:16;;;;;;;0.95;0.90;;;23.60;35.80;;;;;;5016161;28;20648;-45
2021/05/28 04:02:42;;;;;;;0.70;0.70;;;23.60;35.60;;;;;;5016832;28;20229;-43
2021/05/28 04:05:09;;;;;;;0.90;0.80;;;23.60;36.30;;;;;;5011898;28;20207;-48
2021/05/28 04:07:35;;;;;;;2.17;0.90;;;23.60;35.50;;;;;;5013008;28;20203;-43
2021/05/28 04:10:01;;;;;;;1.08;0.88;;;23.60;35.60;;;;;;5012069;28;20257;-50
2021/05/28 04:12:27;;;;;;;0.70;0.70;;;23.60;35.60;;;;;;5012302;28;20227;-50
2021/05/28 04:14:53;;;;;;;1.00;0.80;;;23.60;35.70;;;;;;5012129;28;20257;-47
2021/05/28 04:17:19;;;;;;;4.25;0.98;;;23.60;35.50;;;;;;5013088;28;20231;-41
2021/05/28 04:19:45;;;;;;;1.00;0.90;;;23.60;35.50;;;;;;5012753;28;20230;-43
2021/05/28 04:22:11;;;;;;;1.10;1.00;;;23.60;35.50;;;;;;5013407;28;20230;-54
2021/05/28 04:24:37;;;;;;;0.85;0.82;;;23.60;35.50;;;;;;5012009;28;20203;-52
2021/05/28 04:27:03;;;;;;;0.73;0.60;;;23.60;35.40;;;;;;5011903;28;20258;-40
2021/05/28 04:29:29;;;;;;;0.80;0.80;;;23.60;35.40;;;;;;5011999;28;20195;-43
2021/05/28 04:31:55;;;;;;;0.80;0.80;;;23.60;35.30;;;;;;5012176;28;20207;-44
2021/05/28 04:34:21;;;;;;;1.13;0.90;;;23.70;35.40;;;;;;5012697;28;20612;-43
2021/05/28 04:36:47;;;;;;;1.23;0.90;;;23.60;35.20;;;;;;5012150;28;20261;-46
2021/05/28 04:39:13;;;;;;;0.70;0.70;;;23.60;35.20;;;;;;5012817;28;20218;-47
2021/05/28 04:41:39;;;;;;;1.00;0.85;;;23.60;35.30;;;;;;5010806;28;20210;-41
2021/05/28 04:44:05;;;;;;;1.27;0.90;;;23.60;35.20;;;;;;5012009;28;20306;-44
2021/05/28 04:46:31;;;;;;;0.90;0.90;;;23.60;35.30;;;;;;5011330;28;20214;-47
2021/05/28 04:48:57;;;;;;;1.77;1.15;;;23.60;35.20;;;;;;5011793;28;20210;-42
2021/05/28 04:51:23;;;;;;;1.55;0.82;;;23.70;35.30;;;;;;5009742;28;20203;-45
2021/05/28 04:53:49;;;;;;;1.38;0.82;;;23.70;35.40;;;;;;5011514;28;20234;-47
2021/05/28 04:56:15;;;;;;;0.90;0.90;;;23.60;35.20;;;;;;5010631;28;20695;-47
2021/05/28 04:58:41;;;;;;;1.10;0.85;;;23.70;35.30;;;;;;5010434;28;20650;-41
2021/05/28 05:01:07;;;;;;;0.82;0.82;;;23.70;35.20;;;;;;5012513;28;20199;-46
2021/05/28 05:03:33;;;;;;;0.95;0.82;;;23.70;35.20;;;;;;4994434;28;20224;-48
2021/05/28 05:05:59;;;;;;;0.80;0.80;;;23.70;35.30;;;;;;5009537;28;20669;-41
2021/05/28 05:08:26;;;;;;;0.80;0.80;;;23.70;35.30;;;;;;5011515;28;20253;-44
2021/05/28 05:10:52;;;;;;;2.72;0.98;;;23.70;35.60;;;;;;5010631;28;20199;-48
2021/05/28 05:13:18;;;;;;;4.50;1.10;;;23.60;36.70;;;;;;5008716;28;20253;-48
2021/05/28 05:15:44;;;;;;;2.40;1.00;;;23.70;36.70;;;;;;5009179;28;20620;-51
2021/05/28 05:18:10;;;;;;;2.00;1.10;;;23.70;36.80;;;;;;5010624;28;20261;-45
2021/05/28 05:20:36;;;;;;;1.10;1.00;;;23.70;36.70;;;;;;5011074;28;20239;-47
2021/05/28 05:23:02;;;;;;;1.70;1.23;;;23.70;36.80;;;;;;5010326;28;20563;-42
2021/05/28 05:25:28;;;;;;;3.33;1.08;;;23.70;36.70;;;;;;5010161;28;20206;-41
2021/05/28 05:27:54;;;;;;;5.32;1.50;;;23.70;37.00;;;;;;5012408;28;20207;-42
2021/05/28 05:30:20;;;;;;;2.67;1.35;;;23.60;37.80;;;;;;5011012;28;20211;-43
2021/05/28 05:32:46;;;;;;;4.50;1.70;;;23.80;37.90;;;;;;5011079;28;20765;-44
2021/05/28 05:35:12;;;;;;;3.80;1.25;;;23.70;37.30;;;;;;5010926;28;20196;-42
2021/05/28 05:37:38;;;;;;;12.25;2.00;;;23.70;37.80;;;;;;5008984;28;20238;-43
2021/05/28 05:40:04;;;;;;;2.63;1.60;;;23.70;38.20;;;;;;5011361;28;20979;-47
2021/05/28 05:42:30;;;;;;;8.25;2.80;;;23.60;37.80;;;;;;5005919;28;20215;-42
2021/05/28 05:44:56;;;;;;;8.48;2.70;;;23.60;39.00;;;;;;5010094;28;20255;-45
2021/05/28 05:47:22;;;;;;;7.55;2.38;;;23.60;39.60;;;;;;5010004;28;20207;-44
2021/05/28 05:49:48;;;;;;;10.02;2.50;;;23.60;39.80;;;;;;5011370;28;20249;-46
2021/05/28 05:52:14;;;;;;;6.80;2.55;;;23.60;40.30;;;;;;5010334;28;20222;-48
2021/05/28 05:54:39;;;;;;;5.75;3.30;;;22.70;37.00;;;;;;5009007;28;20203;-46
2021/05/28 05:57:05;;;;;;;5.43;2.03;;;22.20;36.60;;;;;;5009662;28;20235;-43
2021/05/28 05:59:31;;;;;;;3.10;1.83;;;21.20;33.50;;;;;;5010313;28;20229;-42
2021/05/28 06:01:57;;;;;;;3.70;2.10;;;20.40;33.50;;;;;;5009274;28;20638;-46
2021/05/28 06:04:24;;;;;;;3.13;2.07;;;20.50;34.50;;;;;;5010057;28;20203;-42
2021/05/28 06:06:50;;;;;;;2.37;1.57;;;20.70;33.40;;;;;;5009260;28;20418;-43
2021/05/28 06:09:16;;;;;;;1.77;1.63;;;21.00;33.80;;;;;;5010221;28;20210;-44
2021/05/28 06:11:42;;;;;;;2.13;1.93;;;21.50;33.30;;;;;;5009674;28;20260;-47
2021/05/28 06:14:08;;;;;;;3.40;1.50;;;22.00;33.60;;;;;;5008345;28;20675;-42
2021/05/28 06:16:34;;;;;;;2.43;1.50;;;22.30;33.60;;;;;;5009217;28;20223;-46
2021/05/28 06:19:00;;;;;;;1.30;1.20;;;22.50;33.80;;;;;;5004865;28;20223;-48
2021/05/28 06:21:26;;;;;;;2.45;1.38;;;22.70;34.90;;;;;;5016062;28;20214;-43
2021/05/28 06:23:52;;;;;;;2.22;1.60;;;22.80;34.00;;;;;;5012439;28;20273;-43
2021/05/28 06:26:18;;;;;;;2.00;1.50;;;22.90;34.80;;;;;;5004692;28;20203;-41
2021/05/28 06:28:44;;;;;;;1.58;1.40;;;23.00;35.00;;;;;;5005490;28;20210;-43
2021/05/28 06:31:10;;;;;;;1.42;1.10;;;23.10;34.70;;;;;;5007195;28;20203;-47
2021/05/28 06:33:36;;;;;;;1.67;1.23;;;23.20;34.70;;;;;;5007659;28;20699;-49
2021/05/28 06:36:02;;;;;;;2.30;1.30;;;23.30;35.80;;;;;;5010138;28;20229;-50
2021/05/28 06:38:28;;;;;;;2.38;1.20;;;23.30;35.40;;;;;;5008945;28;20508;-43
2021/05/28 06:40:54;;;;;;;1.95;1.27;;;23.40;36.20;;;;;;5008505;28;20207;-46
2021/05/28 06:43:20;;;;;;;1.88;1.45;;;23.40;35.80;;;;;;5007709;28;20257;-42
2021/05/28 06:45:46;;;;;;;2.15;1.50;;;23.40;36.10;;;;;;5008437;28;20214;-47
2021/05/28 06:48:12;;;;;;;3.33;1.52;;;23.50;36.30;;;;;;5009984;28;20200;-47
2021/05/28 06:50:40;;;;;;;2.33;1.50;;;23.40;35.20;;;;;;5010017;28;20278;-46
2021/05/28 06:53:06;;;;;;;1.58;1.48;;;23.40;33.40;;;;;;5007802;28;20670;-50
2021/05/28 06:55:32;;;;;;;3.20;1.60;;;23.30;33.60;;;;;;5009063;28;20275;-43
2021/05/28 06:57:58;;;;;;;1.85;1.50;;;23.30;32.70;;;;;;5008479;28;20257;-52
2021/05/28 07:00:24;;;;;;;3.17;1.70;;;23.30;32.90;;;;;;5006187;28;20207;-44
2021/05/28 07:02:50;;;;;;;2.00;1.80;;;23.40;31.90;;;;;;5005550;28;20281;-49
2021/05/28 07:05:16;;;;;;;2.28;1.70;;;22.70;32.30;;;;;;5002781;28;20196;-42
2021/05/28 07:07:42;;;;;;;4.35;2.17;;;22.70;32.30;;;;;;5000873;28;20210;-42
2021/05/28 07:10:08;;;;;;;2.58;1.70;;;22.90;32.20;;;;;;5009022;28;20656;-37
2021/05/28 07:12:34;;;;;;;4.15;1.55;;;23.00;31.90;;;;;;5009811;28;20230;-45
2021/05/28 07:15:00;;;;;;;3.05;1.60;;;23.10;32.20;;;;;;5007875;28;20302;-46
2021/05/28 07:17:26;;;;;;;1.50;1.40;;;23.10;30.80;;;;;;5009725;28;20242;-43
2021/05/28 07:19:52;;;;;;;1.88;1.40;;;23.20;31.40;;;;;;5009066;28;20656;-45
2021/05/28 07:22:18;;;;;;;2.33;1.50;;;23.20;31.40;;;;;;5009578;28;20231;-43
2021/05/28 07:24:44;;;;;;;1.65;1.40;;;23.20;32.10;;;;;;5008066;28;20229;-44
2021/05/28 07:27:10;;;;;;;1.45;1.25;;;23.30;32.50;;;;;;5009935;28;20306;-43
2021/05/28 07:29:36;;;;;;;1.50;1.25;;;23.30;32.60;;;;;;5001658;28;20195;-43
2021/05/28 07:32:02;;;;;;;1.73;1.17;;;23.30;33.10;;;;;;5009002;28;20262;-44
2021/05/28 07:34:28;;;;;;;1.20;1.00;;;23.40;33.30;;;;;;5006079;28;20211;-48
2021/05/28 07:36:54;;;;;;;1.85;1.40;;;23.40;34.00;;;;;;5009069;28;20706;-42
2021/05/28 07:39:20;;;;;;;1.20;1.10;;;23.40;34.00;;;;;;5008409;28;20216;-42
2021/05/28 07:41:46;;;;;;;1.50;1.40;;;23.50;33.90;;;;;;5012697;28;20219;-50
2021/05/28 07:44:12;;;;;;;1.30;1.20;;;23.40;34.00;;;;;;5009115;28;20200;-42
2021/05/28 07:46:43;;;;;;;3.67;1.50;;;23.40;33.80;;;;;;5012585;28;20671;-49
2021/05/28 07:49:09;;;;;;;4.55;1.92;;;23.40;32.60;;;;;;5013493;28;20231;-41
2021/05/28 07:51:35;;;;;;;6.95;2.33;;;23.40;32.60;;;;;;5007086;28;20718;-42
2021/05/28 07:54:01;;;;;;;15.23;2.65;;;23.30;32.30;;;;;;5011190;28;20203;-47
2021/05/28 07:56:27;;;;;;;9.43;2.40;;;23.30;32.20;;;;;;5013267;28;20285;-44
2021/05/28 07:58:53;;;;;;;5.55;2.40;;;23.30;32.00;;;;;;5012217;28;20663;-50
2021/05/28 08:01:19;;;;;;;6.35;1.92;;;23.40;32.30;;;;;;5012077;28;20622;-45
2021/05/28 08:03:45;;;;;;;3.20;1.83;;;23.40;32.20;;;;;;5011454;28;20227;-49
2021/05/28 08:06:11;;;;;;;3.08;1.73;;;23.30;31.80;;;;;;5012438;28;20194;-40
2021/05/28 08:08:37;;;;;;;3.10;1.83;;;23.30;31.70;;;;;;5013520;28;20563;-43
2021/05/28 08:11:03;;;;;;;3.20;1.90;;;23.30;31.40;;;;;;5007265;28;20206;-39
2021/05/28 08:13:29;;;;;;;3.13;1.73;;;23.30;31.40;;;;;;5010892;28;20214;-42
2021/05/28 08:15:56;;;;;;;2.63;1.80;;;23.30;30.90;;;;;;5006978;28;20219;-42
2021/05/28 08:18:22;;;;;;;2.63;2.00;;;23.30;30.40;;;;;;5009269;28;20619;-44
2021/05/28 08:20:48;;;;;;;1.70;1.42;;;22.90;31.80;;;;;;5005386;28;20207;-41
2021/05/28 08:23:14;;;;;;;2.88;1.88;;;23.10;32.40;;;;;;5010580;28;20274;-43
2021/05/28 08:25:40;;;;;;;1.70;1.40;;;23.20;32.00;;;;;;5011365;28;20703;-42
2021/05/28 08:28:06;;;;;;;1.90;1.50;;;23.30;32.00;;;;;;5006713;28;20634;-43
2021/05/28 08:30:32;;;;;;;2.75;1.50;;;23.40;32.70;;;;;;5007640;28;20608;-52
2021/05/28 08:32:58;;;;;;;1.95;1.27;;;23.40;32.60;;;;;;5011324;28;20219;-46
2021/05/28 08:35:24;;;;;;;1.30;1.20;;;23.50;32.70;;;;;;5010191;28;20207;-47
2021/05/28 08:37:50;;;;;;;2.13;1.92;;;23.50;33.60;;;;;;5012597;28;20334;-45
2021/05/28 08:40:17;;;;;;;1.42;1.33;;;23.60;33.90;;;;;;5012880;28;20580;-45
2021/05/28 08:42:43;;;;;;;2.17;1.20;;;23.60;33.60;;;;;;5010839;28;20242;-43
2021/05/28 08:45:09;;;;;;;2.33;1.83;;;23.60;33.90;;;;;;4983622;28;20199;-44
2021/05/28 08:47:35;;;;;;;1.55;1.42;;;23.60;33.80;;;;;;4987612;28;20239;-46
2021/05/28 08:50:01;;;;;;;1.58;1.40;;;23.60;34.40;;;;;;4990564;28;20222;-57
2021/05/28 08:52:27;;;;;;;1.45;1.33;;;23.60;34.20;;;;;;4991781;28;20238;-43
2021/05/28 08:54:53;;;;;;;1.98;1.35;;;23.50;34.20;;;;;;4991835;28;20199;-43
2021/05/28 08:57:19;;;;;;;1.42;1.23;;;23.50;34.20;;;;;;4987108;28;20708;-44
2021/05/28 08:59:45;;;;;;;1.40;1.20;;;23.50;34.20;;;;;;4990148;28;20252;-45
2021/05/28 09:02:11;;;;;;;2.90;1.50;;;23.50;34.20;;;;;;4977802;28;20318;-49
2021/05/28 09:04:37;;;;;;;2.17;1.30;;;23.60;35.30;;;;;;4989803;28;20204;-42
2021/05/28 09:07:06;;;;;;;1.30;1.17;;;23.60;34.80;;;;;;4990984;28;20713;-41
2021/05/28 09:09:32;;;;;;;1.60;1.38;;;23.60;34.70;;;;;;4991875;28;20212;-47
2021/05/28 09:12:00;;;;;;;3.90;1.35;;;23.60;34.70;;;;;;4991323;28;20259;-48
2021/05/28 09:14:26;;;;;;;1.63;1.30;;;23.60;34.60;;;;;;4988115;28;20211;-43
2021/05/28 09:16:52;;;;;;;1.50;1.35;;;23.60;34.60;;;;;;4990387;28;20231;-49
2021/05/28 09:19:18;;;;;;;3.72;1.42;;;23.60;35.30;;;;;;4987658;28;20201;-47
2021/05/28 09:21:44;;;;;;;2.65;1.20;;;23.60;35.10;;;;;;4995998;28;20258;-44
2021/05/28 09:24:10;;;;;;;2.33;1.30;;;23.60;35.30;;;;;;4992015;28;20787;-44
2021/05/28 09:26:36;;;;;;;1.30;1.13;;;23.60;35.10;;;;;;4992801;28;20230;-46
2021/05/28 09:29:02;;;;;;;1.40;1.20;;;23.60;35.20;;;;;;4991956;28;20199;-46
2021/05/28 09:31:28;;;;;;;1.30;1.20;;;23.60;35.00;;;;;;4992250;28;20255;-50
2021/05/28 09:33:54;;;;;;;1.30;1.20;;;23.60;35.00;;;;;;4992292;28;20215;-46
2021/05/28 09:36:21;;;;;;;1.77;1.30;;;23.60;34.90;;;;;;4992746;28;20603;-46
2021/05/28 09:38:47;;;;;;;1.63;1.45;;;23.60;34.90;;;;;;4990284;28;20254;-47
2021/05/28 09:41:13;;;;;;;1.20;1.10;;;23.60;34.80;;;;;;4992189;28;20235;-43
2021/05/28 09:43:39;;;;;;;1.38;1.20;;;23.60;34.90;;;;;;4991459;28;20782;-43
2021/05/28 09:46:05;;;;;;;1.35;1.10;;;23.60;34.80;;;;;;4992951;28;20207;-45
2021/05/28 09:48:31;;;;;;;1.95;1.45;;;23.60;34.90;;;;;;4992253;28;20586;-42
2021/05/28 09:50:57;;;;;;;1.20;1.13;;;23.60;35.00;;;;;;4986786;28;20223;-44
2021/05/28 09:53:23;;;;;;;3.05;1.20;;;23.60;35.60;;;;;;4988015;28;20251;-40
2021/05/28 09:55:49;;;;;;;3.38;1.48;;;23.60;35.20;;;;;;4991805;28;20203;-45
2021/05/28 09:58:15;;;;;;;1.92;1.40;;;23.70;35.10;;;;;;4991128;28;20598;-44
2021/05/28 10:00:41;;;;;;;2.47;1.48;;;23.70;35.10;;;;;;4991172;28;20219;-49
2021/05/28 10:03:07;;;;;;;1.65;1.25;;;23.70;35.20;;;;;;4988343;28;20211;-45
2021/05/28 10:05:33;;;;;;;1.73;1.23;;;23.70;35.20;;;;;;4989450;28;20609;-42
2021/05/28 10:07:59;;;;;;;2.50;1.35;;;23.70;35.20;;;;;;4988790;28;20210;-47
2021/05/28 10:10:25;;;;;;;3.78;1.50;;;23.70;35.20;;;;;;4989098;28;20196;-43
2021/05/28 10:12:51;;;;;;;2.60;1.63;;;23.70;35.30;;;;;;4990055;28;20277;-52
2021/05/28 10:15:17;;;;;;;1.95;1.20;;;23.70;36.40;;;;;;4989866;28;20196;-44
2021/05/28 10:17:43;;;;;;;1.88;1.23;;;23.70;36.90;;;;;;4987883;28;20232;-46
2021/05/28 10:20:09;;;;;;;2.05;1.40;;;23.80;36.90;;;;;;4990160;28;20208;-46
2021/05/28 10:22:35;;;;;;;2.25;1.25;;;23.70;36.20;;;;;;4990380;28;20243;-46
2021/05/28 10:25:04;;;;;;;1.98;1.20;;;23.70;35.90;;;;;;4989342;28;20605;-45
2021/05/28 10:27:30;;;;;;;1.20;1.10;;;23.70;35.80;;;;;;4987914;28;20564;-43
2021/05/28 10:29:56;;;;;;;1.63;1.27;;;23.70;35.70;;;;;;4985753;28;20203;-45
2021/05/28 10:32:22;;;;;;;1.55;1.20;;;23.70;35.60;;;;;;4989570;28;20227;-49
2021/05/28 10:34:48;;;;;;;1.38;1.27;;;23.70;35.60;;;;;;4989191;28;20558;-52
2021/05/28 10:37:14;;;;;;;2.45;1.17;;;23.70;35.60;;;;;;4989304;28;20224;-45
2021/05/28 10:39:40;;;;;;;1.30;1.02;;;23.70;35.70;;;;;;4988662;28;20258;-44
2021/05/28 10:42:06;;;;;;;1.63;1.30;;;23.70;35.60;;;;;;4986926;28;20286;-40
2021/05/28 10:44:32;;;;;;;2.22;1.20;;;23.70;36.40;;;;;;4989052;28;20200;-44
2021/05/28 10:46:58;;;;;;;2.40;1.40;;;23.80;36.40;;;;;;4990286;28;20220;-43
2021/05/28 10:49:24;;;;;;;1.95;1.40;;;23.80;36.80;;;;;;4989370;28;20565;-42
2021/05/28 10:51:50;;;;;;;1.80;1.30;;;23.80;36.20;;;;;;4988650;28;20246;-45
2021/05/28 10:54:16;;;;;;;1.63;1.13;;;23.80;36.40;;;;;;4989259;28;20652;-45
2021/05/28 10:56:42;;;;;;;3.00;1.30;;;23.80;37.10;;;;;;4988168;28;20270;-40
2021/05/28 10:59:08;;;;;;;1.75;1.20;;;23.90;36.90;;;;;;4982295;28;20540;-41
2021/05/28 11:01:34;;;;;;;3.45;1.20;;;23.90;36.90;;;;;;4980615;28;20314;-44
2021/05/28 11:04:01;;;;;;;2.08;1.05;;;23.80;36.30;;;;;;4989576;28;20223;-40
2021/05/28 11:06:27;;;;;;;1.65;1.35;;;23.80;36.40;;;;;;4989857;28;20633;-42
2021/05/28 11:08:53;;;;;;;1.80;1.35;;;23.80;35.90;;;;;;4986233;28;20521;-49
2021/05/28 11:11:19;;;;;;;1.45;1.35;;;23.80;36.00;;;;;;4987603;28;20270;-46
2021/05/28 11:13:45;;;;;;;1.10;1.00;;;23.80;35.90;;;;;;4989833;28;20648;-47
2021/05/28 11:16:11;;;;;;;2.03;1.13;;;23.80;35.90;;;;;;4994354;28;20227;-48
2021/05/28 11:18:37;;;;;;;1.10;1.10;;;23.80;35.80;;;;;;4994546;28;20219;-41
2021/05/28 11:21:03;;;;;;;1.30;1.20;;;23.80;36.00;;;;;;4993229;28;20572;-45
2021/05/28 11:23:30;;;;;;;1.35;1.25;;;23.80;35.90;;;;;;4991596;28;20200;-45
2021/05/28 11:25:56;;;;;;;1.20;1.10;;;23.80;36.00;;;;;;4991024;28;20205;-48
2021/05/28 11:28:23;;;;;;;1.38;1.15;;;23.80;36.10;;;;;;4993895;28;20635;-46
2021/05/28 11:30:49;;;;;;;2.65;1.40;;;23.80;36.20;;;;;;4988103;28;20223;-50
2021/05/28 11:33:15;;;;;;;1.63;1.10;;;23.80;36.40;;;;;;4993548;28;20203;-46
2021/05/28 11:35:41;;;;;;;2.10;1.33;;;23.80;36.40;;;;;;4991958;28;20617;-50
2021/05/28 11:38:07;;;;;;;2.45;1.30;;;23.80;36.50;;;;;;4992952;28;20231;-47
2021/05/28 11:40:33;;;;;;;1.38;1.27;;;23.80;36.30;;;;;;4992495;28;20231;-43
2021/05/28 11:42:59;;;;;;;2.00;1.23;;;23.70;36.20;;;;;;4988645;28;20196;-44
2021/05/28 11:45:25;;;;;;;2.22;1.00;;;23.80;36.30;;;;;;4990600;28;20203;-50
2021/05/28 11:47:53;;;;;;;1.60;1.00;;;23.80;36.30;;;;;;4992846;28;20212;-47
2021/05/28 11:50:20;;;;;;;1.52;1.10;;;23.80;36.10;;;;;;4993127;28;20206;-45
2021/05/28 11:52:46;;;;;;;2.50;1.15;;;23.80;36.10;;;;;;4992538;28;20236;-48
2021/05/28 11:55:12;;;;;;;1.25;1.02;;;23.80;36.00;;;;;;4993127;28;20327;-44
2021/05/28 11:57:38;;;;;;;1.92;1.25;;;23.80;36.00;;;;;;4992492;28;20593;-41
2021/05/28 12:00:04;;;;;;;2.20;1.20;;;23.80;36.00;;;;;;4993133;28;20203;-43
2021/05/28 12:02:30;;;;;;;1.67;1.00;;;23.80;36.00;;;;;;4992145;28;20200;-45
2021/05/28 12:04:56;;;;;;;1.08;1.02;;;23.80;35.80;;;;;;4991463;28;20672;-46
2021/05/28 12:07:22;;;;;;;1.17;1.08;;;23.80;35.90;;;;;;4982515;28;20205;-46
2021/05/28 12:09:48;;;;;;;1.65;1.30;;;23.80;36.00;;;;;;4992709;28;20208;-45
2021/05/28 12:12:14;;;;;;;1.02;1.02;;;23.80;35.90;;;;;;4991472;28;20223;-41
2021/05/28 12:14:40;;;;;;;1.25;1.15;;;23.80;36.00;;;;;;4991625;28;20516;-41
2021/05/28 12:17:06;;;;;;;2.08;1.33;;;23.80;35.90;;;;;;4989975;28;20224;-49
2021/05/28 12:19:32;;;;;;;1.25;1.15;;;23.80;36.20;;;;;;4991149;28;20215;-47
2021/05/28 12:21:58;;;;;;;2.10;1.00;;;23.80;36.10;;;;;;4988949;28;20571;-46
2021/05/28 12:24:24;;;;;;;1.30;1.20;;;23.80;36.00;;;;;;4987923;28;20204;-42
2021/05/28 12:26:50;;;;;;;1.25;1.15;;;23.80;36.40;;;;;;4990023;28;20203;-45
2021/05/28 12:29:16;;;;;;;1.05;1.00;;;23.80;36.10;;;;;;4991373;28;20234;-43
2021/05/28 12:31:42;;;;;;;2.22;1.20;;;23.80;36.20;;;;;;4992290;28;20216;-46
2021/05/28 12:34:08;;;;;;;1.40;1.30;;;23.80;36.30;;;;;;4991079;28;20211;-45
2021/05/28 12:36:34;;;;;;;1.60;1.23;;;23.80;36.70;;;;;;4992629;28;20231;-42
2021/05/28 12:39:00;;;;;;;3.20;1.65;;;23.80;36.50;;;;;;4990263;28;20201;-44